TimeCDT,TemperatureF,Dew PointF,Humidity,Sea Level PressureIn,VisibilityMPH,Wind Direction,Wind SpeedMPH,Gust SpeedMPH,PrecipitationIn,Events,Conditions,WindDirDegrees,DateUTC
12:15 AM,55.4,35.6,47,30.25,10.0,SE,3.5,-,N/A,,Mostly Cloudy,130,2013-04-26 05:15:00
12:35 AM,55.4,35.6,47,30.24,10.0,ESE,3.5,-,N/A,,Mostly Cloudy,110,2013-04-26 05:35:00
12:55 AM,55.4,35.6,47,30.24,10.0,ESE,3.5,-,N/A,,Mostly Cloudy,120,2013-04-26 05:55:00
1:15 AM,55.4,33.8,44,30.25,10.0,Calm,Calm,-,N/A,,Mostly Cloudy,0,2013-04-26 06:15:00
1:35 AM,55.4,35.6,47,30.25,10.0,South,5.8,-,N/A,,Mostly Cloudy,180,2013-04-26 06:35:00
2:15 AM,55.4,35.6,47,30.23,10.0,SSE,5.8,-,N/A,,Overcast,160,2013-04-26 07:15:00
2:35 AM,55.4,35.6,47,30.23,10.0,South,4.6,-,N/A,,Overcast,190,2013-04-26 07:35:00
2:55 AM,55.4,35.6,47,30.25,10.0,South,4.6,-,N/A,,Overcast,180,2013-04-26 07:55:00
3:15 AM,55.4,37.4,51,30.26,10.0,South,5.8,-,N/A,,Overcast,190,2013-04-26 08:15:00
3:35 AM,55.4,37.4,51,30.29,10.0,SW,6.9,-,N/A,,Overcast,230,2013-04-26 08:35:00
3:55 AM,53.6,41.0,62,30.28,10.0,East,4.6,-,N/A,,Overcast,100,2013-04-26 08:55:00
4:15 AM,53.6,39.2,58,30.27,10.0,ESE,4.6,-,N/A,,Overcast,110,2013-04-26 09:15:00
4:35 AM,55.4,39.2,54,30.27,10.0,East,3.5,-,N/A,,Overcast,100,2013-04-26 09:35:00
4:55 AM,53.6,42.8,67,30.27,10.0,East,4.6,-,N/A,,Overcast,90,2013-04-26 09:55:00
5:15 AM,53.6,42.8,67,30.27,10.0,East,4.6,-,N/A,,Overcast,90,2013-04-26 10:15:00
5:35 AM,51.8,44.6,76,30.30,10.0,Calm,Calm,-,N/A,,Overcast,0,2013-04-26 10:35:00
5:55 AM,51.8,46.4,82,30.31,10.0,East,3.5,-,N/A,,Overcast,100,2013-04-26 10:55:00
6:15 AM,51.8,44.6,76,30.31,10.0,East,5.8,-,N/A,,Overcast,100,2013-04-26 11:15:00
6:35 AM,51.8,42.8,71,30.30,10.0,ESE,4.6,-,N/A,,Overcast,120,2013-04-26 11:35:00
6:55 AM,51.8,42.8,71,30.32,10.0,SE,3.5,-,N/A,,Mostly Cloudy,140,2013-04-26 11:55:00
7:15 AM,51.8,42.8,71,30.33,10.0,SSE,3.5,-,N/A,,Overcast,150,2013-04-26 12:15:00
7:35 AM,53.6,42.8,67,30.33,10.0,South,5.8,-,N/A,,Overcast,190,2013-04-26 12:35:00
7:55 AM,51.8,42.8,71,30.34,10.0,SSW,13.8,18.4,N/A,,Overcast,200,2013-04-26 12:55:00
8:15 AM,50.0,42.8,76,30.35,10.0,SSW,13.8,19.6,N/A,,Overcast,200,2013-04-26 13:15:00
8:35 AM,48.2,42.8,82,30.37,10.0,SW,8.1,-,0.01,,Overcast,230,2013-04-26 13:35:00
8:55 AM,48.2,42.8,82,30.37,10.0,SSW,8.1,-,0.04,,Overcast,200,2013-04-26 13:55:00
9:15 AM,48.2,44.6,87,30.35,10.0,South,9.2,-,0.04,,Overcast,170,2013-04-26 14:15:00
9:35 AM,48.2,44.6,87,30.35,10.0,South,8.1,-,0.09,,Overcast,170,2013-04-26 14:35:00
9:55 AM,48.2,44.6,87,30.34,9.0,SSE,8.1,-,0.13,,Overcast,160,2013-04-26 14:55:00
10:15 AM,48.2,44.6,87,30.34,10.0,South,8.1,-,0.03,,Overcast,170,2013-04-26 15:15:00
10:35 AM,48.2,46.4,93,30.33,10.0,South,10.4,-,0.04,,Overcast,180,2013-04-26 15:35:00
10:55 AM,50.0,46.4,87,30.34,10.0,South,6.9,-,0.05,,Mostly Cloudy,180,2013-04-26 15:55:00
11:15 AM,50.0,46.4,87,30.36,10.0,SSW,8.1,-,N/A,,Overcast,200,2013-04-26 16:15:00
11:35 AM,50.0,46.4,87,30.37,10.0,South,8.1,-,N/A,,Overcast,190,2013-04-26 16:35:00
11:55 AM,50.0,46.4,87,30.35,10.0,South,8.1,-,N/A,,Overcast,170,2013-04-26 16:55:00
12:15 PM,50.0,46.4,87,30.33,10.0,South,8.1,-,N/A,,Overcast,170,2013-04-26 17:15:00
12:35 PM,50.0,46.4,87,30.29,10.0,SSE,6.9,-,N/A,,Mostly Cloudy,160,2013-04-26 17:35:00
12:55 PM,51.8,46.4,82,30.31,10.0,SSE,6.9,-,N/A,,Mostly Cloudy,150,2013-04-26 17:55:00
1:15 PM,51.8,44.6,76,30.31,10.0,South,8.1,-,N/A,,Mostly Cloudy,170,2013-04-26 18:15:00
1:35 PM,51.8,44.6,76,30.31,10.0,South,9.2,-,N/A,,Scattered Clouds,180,2013-04-26 18:35:00
1:55 PM,51.8,44.6,76,30.29,10.0,South,10.4,-,N/A,,Scattered Clouds,170,2013-04-26 18:55:00
2:15 PM,51.8,44.6,76,30.28,10.0,South,10.4,-,N/A,,Mostly Cloudy,170,2013-04-26 19:15:00
2:35 PM,53.6,44.6,72,30.29,10.0,South,11.5,17.3,N/A,,Overcast,170,2013-04-26 19:35:00
2:55 PM,53.6,44.6,72,30.29,10.0,SSE,11.5,17.3,N/A,,Overcast,160,2013-04-26 19:55:00
3:15 PM,51.8,42.8,71,30.29,10.0,South,6.9,16.1,N/A,,Overcast,170,2013-04-26 20:15:00
3:35 PM,51.8,42.8,71,30.29,10.0,South,8.1,-,N/A,,Overcast,170,2013-04-26 20:35:00
3:55 PM,50.0,44.6,82,30.29,10.0,South,6.9,-,0.01,,Mostly Cloudy,180,2013-04-26 20:55:00
4:15 PM,50.0,44.6,82,30.26,9.0,SE,5.8,-,N/A,,Overcast,140,2013-04-26 21:15:00
4:35 PM,48.2,46.4,93,30.26,5.0,ESE,6.9,-,0.07,,Overcast,120,2013-04-26 21:35:00
4:55 PM,48.2,44.6,87,30.26,7.0,ESE,8.1,-,0.11,,Overcast,110,2013-04-26 21:55:00
5:15 PM,48.2,44.6,87,30.29,9.0,ESE,3.5,-,0.03,,Overcast,120,2013-04-26 22:15:00
5:35 PM,48.2,46.4,93,30.26,9.0,ESE,8.1,-,0.05,,Overcast,120,2013-04-26 22:35:00
5:55 PM,48.2,44.6,87,30.26,10.0,ESE,5.8,-,0.06,,Overcast,120,2013-04-26 22:55:00
6:15 PM,48.2,44.6,87,30.25,10.0,ESE,8.1,-,N/A,,Mostly Cloudy,120,2013-04-26 23:15:00
6:35 PM,46.4,44.6,93,30.22,8.0,ESE,8.1,-,N/A,,Overcast,110,2013-04-26 23:35:00
6:55 PM,46.4,44.6,93,30.25,9.0,South,8.1,-,0.02,,Mostly Cloudy,180,2013-04-26 23:55:00
7:15 PM,46.4,44.6,93,30.25,10.0,SSE,6.9,-,0.01,,Mostly Cloudy,150,2013-04-27 00:15:00
7:35 PM,46.4,44.6,93,30.24,8.0,SE,5.8,-,0.02,,Mostly Cloudy,140,2013-04-27 00:35:00
7:55 PM,46.4,44.6,93,30.24,10.0,East,5.8,-,0.02,,Overcast,90,2013-04-27 00:55:00
8:15 PM,46.4,44.6,93,30.25,10.0,ENE,6.9,-,0.01,,Overcast,60,2013-04-27 01:15:00
8:35 PM,46.4,44.6,93,30.24,9.0,ENE,8.1,-,0.02,,Overcast,60,2013-04-27 01:35:00
8:55 PM,46.4,44.6,93,30.27,10.0,ENE,4.6,-,0.02,,Overcast,60,2013-04-27 01:55:00
9:15 PM,46.4,44.6,93,30.27,8.0,ENE,5.8,-,0.03,,Overcast,70,2013-04-27 02:15:00
9:35 PM,46.4,44.6,93,30.27,9.0,ENE,8.1,-,0.05,,Overcast,70,2013-04-27 02:35:00
9:55 PM,46.4,44.6,93,30.27,10.0,East,8.1,-,0.05,,Overcast,80,2013-04-27 02:55:00
10:15 PM,46.4,44.6,93,30.27,8.0,East,6.9,-,N/A,,Overcast,80,2013-04-27 03:15:00
10:35 PM,46.4,44.6,93,30.27,7.0,ENE,9.2,-,0.02,,Overcast,70,2013-04-27 03:35:00
10:55 PM,46.4,44.6,93,30.26,10.0,East,6.9,-,0.03,,Overcast,90,2013-04-27 03:55:00
11:15 PM,46.4,44.6,93,30.26,10.0,East,8.1,-,N/A,,Overcast,90,2013-04-27 04:15:00
11:35 PM,46.4,44.6,93,30.26,10.0,East,5.8,-,N/A,,Overcast,90,2013-04-27 04:35:00
11:55 PM,46.4,44.6,93,30.25,10.0,East,6.9,-,N/A,,Overcast,80,2013-04-27 04:55:00